createdAt,value
2023-05-24T00:03:35.676Z,13.90
2023-05-24T00:06:10.432Z,13.88
2023-05-24T00:08:45.611Z,13.84
2023-05-24T00:11:12.807Z,13.86
2023-05-24T00:13:44.987Z,13.89
2023-05-24T00:16:22.385Z,13.78
2023-05-24T00:18:50.697Z,13.83
2023-05-24T00:21:23.515Z,13.78
2023-05-24T00:23:57.902Z,13.83
2023-05-24T00:26:31.942Z,13.84
2023-05-24T00:29:01.333Z,13.89
2023-05-24T00:31:35.934Z,13.82
2023-05-24T00:34:05.101Z,13.83
2023-05-24T00:36:37.636Z,13.84
2023-05-24T00:39:22.678Z,13.82
2023-05-24T00:41:50.072Z,13.77
2023-05-24T00:44:16.848Z,13.70
2023-05-24T00:46:48.775Z,13.75
2023-05-24T00:49:23.332Z,13.80
2023-05-24T00:51:55.339Z,13.81
2023-05-24T00:54:23.009Z,13.84
2023-05-24T00:59:41.288Z,13.71
2023-05-24T01:02:10.719Z,13.70
2023-05-24T01:04:38.139Z,13.73
2023-05-24T01:10:33.289Z,13.82
2023-05-24T01:19:12.255Z,13.78
2023-05-24T01:21:57.294Z,13.79
2023-05-24T01:25:02.490Z,13.80
2023-05-24T01:27:37.626Z,13.77
2023-05-24T01:30:06.508Z,13.77
2023-05-24T01:32:36.764Z,13.73
2023-05-24T01:35:06.628Z,13.73
2023-05-24T01:37:36.661Z,13.74
2023-05-24T01:40:15.778Z,13.76
2023-05-24T01:43:17.204Z,13.79
2023-05-24T01:46:22.691Z,13.81
2023-05-24T01:49:12.789Z,13.83
2023-05-24T01:51:53.763Z,13.83
2023-05-24T01:54:29.085Z,13.74
2023-05-24T01:57:02.267Z,13.74
2023-05-24T02:02:28.268Z,13.74
2023-05-24T02:05:11.489Z,13.78
2023-05-24T02:07:45.749Z,13.79
2023-05-24T02:10:30.876Z,13.80
2023-05-24T02:13:00.899Z,13.79
2023-05-24T02:15:38.357Z,13.77
2023-05-24T02:18:15.847Z,13.80
2023-05-24T02:20:52.829Z,13.77
2023-05-24T02:27:12.729Z,13.72
2023-05-24T02:29:57.740Z,13.75
2023-05-24T02:35:11.621Z,13.71
2023-05-24T02:37:42.420Z,13.72
2023-05-24T02:40:16.293Z,13.70
2023-05-24T02:42:43.194Z,13.70
2023-05-24T02:45:13.664Z,13.70
2023-05-24T02:47:52.688Z,13.69
2023-05-24T02:50:32.063Z,13.70
2023-05-24T02:52:59.188Z,13.70
2023-05-24T02:55:39.226Z,13.67
2023-05-24T02:58:09.497Z,13.66
2023-05-24T03:00:45.325Z,13.68
2023-05-24T03:03:16.287Z,13.62
2023-05-24T03:05:44.773Z,13.67
2023-05-24T03:08:26.465Z,13.67
2023-05-24T03:10:59.914Z,13.69
2023-05-24T03:13:39.592Z,13.67
2023-05-24T03:16:20.905Z,13.67
2023-05-24T03:18:53.394Z,13.70
2023-05-24T03:21:21.844Z,13.70
2023-05-24T03:23:57.746Z,13.69
2023-05-24T03:29:07.470Z,13.68
2023-05-24T03:31:35.282Z,13.65
2023-05-24T03:34:03.337Z,13.66
2023-05-24T03:36:44.768Z,13.65
2023-05-24T03:39:17.289Z,13.62
2023-05-24T03:41:53.250Z,13.63
2023-05-24T03:44:21.775Z,13.61
2023-05-24T03:46:49.447Z,13.60
2023-05-24T03:49:16.772Z,13.60
2023-05-24T03:51:56.123Z,13.68
2023-05-24T03:54:23.328Z,13.66
2023-05-24T03:57:03.855Z,13.63
2023-05-24T03:59:41.986Z,13.66
2023-05-24T04:02:10.535Z,13.67
2023-05-24T04:04:50.512Z,13.68
2023-05-24T04:07:17.658Z,13.64
2023-05-24T04:09:54.234Z,13.66
2023-05-24T04:12:21.094Z,13.67
2023-05-24T04:15:00.522Z,13.69
2023-05-24T04:17:34.065Z,13.72
2023-05-24T04:20:03.666Z,13.68
2023-05-24T04:22:31.197Z,13.69
2023-05-24T04:25:09.340Z,13.71
2023-05-24T04:27:42.245Z,13.70
2023-05-24T04:30:27.495Z,13.73
2023-05-24T04:32:58.140Z,13.74
2023-05-24T04:35:27.477Z,13.72
2023-05-24T04:37:55.190Z,13.68
2023-05-24T04:40:23.291Z,13.67
2023-05-24T04:42:57.568Z,13.70
2023-05-24T04:45:27.986Z,13.68
2023-05-24T04:47:59.015Z,13.71
2023-05-24T04:50:26.723Z,13.74
2023-05-24T04:52:53.949Z,13.80
2023-05-24T04:55:23.785Z,13.83
2023-05-24T04:57:52.605Z,13.81
2023-05-24T05:00:20.538Z,13.85
2023-05-24T05:03:06.997Z,13.90
2023-05-24T05:05:34.269Z,13.86
2023-05-24T05:08:05.634Z,13.93
2023-05-24T05:10:37.769Z,13.90
2023-05-24T05:13:12.530Z,13.92
2023-05-24T05:15:50.854Z,13.90
2023-05-24T05:18:21.065Z,13.93
2023-05-24T05:20:52.052Z,13.97
2023-05-24T05:23:19.273Z,13.98
2023-05-24T05:25:49.024Z,14.02
2023-05-24T05:28:17.886Z,14.04
2023-05-24T05:30:44.928Z,13.94
2023-05-24T05:33:20.544Z,13.93
2023-05-24T05:38:48.725Z,14.03
2023-05-24T05:41:28.005Z,14.10
2023-05-24T05:43:55.058Z,14.12
2023-05-24T05:52:03.606Z,14.26
2023-05-24T05:54:47.310Z,14.27
2023-05-24T05:57:25.304Z,14.31
2023-05-24T05:59:54.584Z,14.32
2023-05-24T06:02:39.546Z,14.31
2023-05-24T06:05:07.270Z,14.31
2023-05-24T06:07:42.753Z,14.39
2023-05-24T06:10:12.357Z,14.39
2023-05-24T06:12:47.603Z,14.43
2023-05-24T06:15:15.504Z,14.45
2023-05-24T06:17:53.864Z,14.53
2023-05-24T06:20:24.231Z,14.56
2023-05-24T06:22:54.458Z,14.60
2023-05-24T06:25:34.192Z,14.60
2023-05-24T06:28:05.167Z,14.69
2023-05-24T06:30:45.693Z,14.74
2023-05-24T06:33:23.690Z,14.74
2023-05-24T06:36:02.870Z,14.81
2023-05-24T06:38:44.519Z,14.88
2023-05-24T06:43:55.623Z,14.99
2023-05-24T06:46:29.696Z,15.03
2023-05-24T06:48:56.732Z,15.09
2023-05-24T06:54:14.126Z,15.08
2023-05-24T06:59:23.267Z,15.08
2023-05-24T07:01:54.528Z,15.06
2023-05-24T07:04:26.419Z,15.07
2023-05-24T07:09:45.023Z,15.21
2023-05-24T07:12:19.549Z,15.26
2023-05-24T07:14:51.215Z,15.23
2023-05-24T07:17:20.235Z,15.19
2023-05-24T07:19:51.969Z,15.10
2023-05-24T07:22:29.570Z,15.12
2023-05-24T07:25:12.052Z,15.14
2023-05-24T07:27:46.730Z,15.10
2023-05-24T07:30:27.744Z,15.08
2023-05-24T07:33:09.463Z,15.09
2023-05-24T07:35:39.800Z,15.04
2023-05-24T07:38:09.195Z,15.04
2023-05-24T07:40:36.360Z,15.02
2023-05-24T07:43:04.349Z,15.04
2023-05-24T07:45:44.215Z,15.06
2023-05-24T07:48:11.397Z,15.04
2023-05-24T07:50:39.931Z,15.05
2023-05-24T07:53:18.635Z,15.02
2023-05-24T07:55:50.048Z,15.05
2023-05-24T07:58:20.503Z,15.02
2023-05-24T08:01:00.353Z,15.01
2023-05-24T08:08:55.207Z,15.13
2023-05-24T08:11:28.458Z,15.13
2023-05-24T08:13:57.706Z,15.08
2023-05-24T08:16:30.201Z,15.09
2023-05-24T08:18:58.139Z,15.08
2023-05-24T08:21:31.763Z,15.09
2023-05-24T08:24:09.671Z,15.04
2023-05-24T08:26:44.393Z,15.09
2023-05-24T08:29:29.963Z,15.12
2023-05-24T08:34:38.107Z,15.18
2023-05-24T08:37:07.565Z,15.22
2023-05-24T08:39:38.557Z,15.26
2023-05-24T08:44:54.903Z,15.37
2023-05-24T08:50:10.534Z,15.42
2023-05-24T08:52:44.851Z,15.39
2023-05-24T08:55:23.685Z,15.43
2023-05-24T08:57:58.919Z,15.38
2023-05-24T09:03:22.481Z,15.31
2023-05-24T09:06:02.297Z,15.30
2023-05-24T09:14:01.318Z,15.19
2023-05-24T09:16:30.819Z,15.18
2023-05-24T09:18:58.623Z,15.17
2023-05-24T09:21:27.957Z,15.11
2023-05-24T09:26:51.484Z,15.08
2023-05-24T09:29:32.452Z,15.09
2023-05-24T09:32:07.964Z,15.09
2023-05-24T09:34:44.013Z,15.16
2023-05-24T09:37:30.682Z,15.22
2023-05-24T09:40:06.781Z,15.26
2023-05-24T09:42:36.031Z,15.36
2023-05-24T09:45:12.954Z,15.38
2023-05-24T09:47:45.304Z,15.42
2023-05-24T09:50:14.934Z,15.40
2023-05-24T09:52:45.954Z,15.43
2023-05-24T09:55:20.392Z,15.41
2023-05-24T09:57:56.560Z,15.40
2023-05-24T10:00:35.348Z,15.37
2023-05-24T10:03:04.779Z,15.36
2023-05-24T10:08:24.749Z,15.29
2023-05-24T10:13:39.852Z,15.27
2023-05-24T10:16:16.084Z,15.24
2023-05-24T10:18:58.932Z,15.24
2023-05-24T10:21:31.810Z,15.25
2023-05-24T10:26:57.235Z,15.18
2023-05-24T10:29:36.871Z,15.19
2023-05-24T10:32:05.274Z,15.18
2023-05-24T10:34:46.865Z,15.24
2023-05-24T10:37:15.895Z,15.23
2023-05-24T10:39:48.946Z,15.23
2023-05-24T10:42:32.097Z,15.21
2023-05-24T10:45:01.038Z,15.20
2023-05-24T10:47:31.185Z,15.09
2023-05-24T10:50:01.452Z,15.02
2023-05-24T10:52:40.310Z,15.01
2023-05-24T10:55:13.271Z,14.92
2023-05-24T10:57:41.215Z,14.91
2023-05-24T11:03:09.267Z,14.84
2023-05-24T11:05:49.324Z,14.80
2023-05-24T11:08:43.726Z,14.72
2023-05-24T11:14:02.214Z,14.72
2023-05-24T11:16:38.538Z,14.74
2023-05-24T11:19:14.105Z,14.73
2023-05-24T11:21:46.424Z,14.71
2023-05-24T11:24:19.937Z,14.76
2023-05-24T11:29:38.255Z,14.87
2023-05-24T11:32:09.567Z,14.94
2023-05-24T11:34:47.272Z,14.97
2023-05-24T11:37:18.791Z,15.07
2023-05-24T11:42:39.541Z,15.09
2023-05-24T11:45:11.541Z,15.13
2023-05-24T11:47:43.755Z,15.24
2023-05-24T11:50:17.154Z,15.30
2023-05-24T11:52:57.048Z,15.32
2023-05-24T11:55:44.150Z,15.47
2023-05-24T11:58:32.230Z,15.54
2023-05-24T12:01:09.537Z,15.60
2023-05-24T12:03:36.557Z,15.60
2023-05-24T12:06:06.900Z,15.70
2023-05-24T12:08:42.929Z,15.78
2023-05-24T12:22:00.556Z,15.94
2023-05-24T12:24:30.459Z,15.84
2023-05-24T12:27:07.885Z,15.68
2023-05-24T12:29:42.160Z,15.69
2023-05-24T12:32:28.978Z,15.64
2023-05-24T12:34:58.854Z,15.64
2023-05-24T12:37:38.807Z,15.66
2023-05-24T12:40:32.686Z,15.64
2023-05-24T12:43:10.405Z,15.59
2023-05-24T12:45:38.100Z,15.57
2023-05-24T12:48:17.404Z,15.49
2023-05-24T12:50:48.613Z,15.40
2023-05-24T12:56:19.316Z,15.05
2023-05-24T12:58:57.080Z,14.90
2023-05-24T13:01:26.618Z,14.89
2023-05-24T13:04:04.415Z,14.77
2023-05-24T13:06:38.264Z,14.72
2023-05-24T13:09:14.080Z,14.74
2023-05-24T13:11:43.349Z,14.71
2023-05-24T13:14:13.004Z,14.53
2023-05-24T13:16:49.210Z,14.53
2023-05-24T13:19:30.320Z,14.62
2023-05-24T13:21:57.109Z,14.69
2023-05-24T13:24:24.887Z,14.70
2023-05-24T13:27:02.265Z,14.73
2023-05-24T13:29:45.618Z,14.72
2023-05-24T13:32:20.109Z,14.66
2023-05-24T13:35:15.824Z,14.60
2023-05-24T13:37:49.490Z,14.59
2023-05-24T13:40:19.508Z,14.60
2023-05-24T13:42:49.824Z,14.58
2023-05-24T13:45:19.406Z,14.57
2023-05-24T13:47:47.651Z,14.54
2023-05-24T13:50:17.647Z,14.54
2023-05-24T13:52:54.967Z,14.52
2023-05-24T13:55:24.268Z,14.56
2023-05-24T13:58:02.687Z,14.59
2023-05-24T14:00:34.213Z,14.64
2023-05-24T14:03:02.660Z,14.67
2023-05-24T14:05:45.045Z,14.69
2023-05-24T14:08:24.007Z,14.61
2023-05-24T14:11:05.717Z,14.60
2023-05-24T14:16:14.118Z,14.64
2023-05-24T14:18:41.543Z,14.59
2023-05-24T14:21:25.665Z,14.52
2023-05-24T14:23:52.947Z,14.55
2023-05-24T14:26:22.185Z,14.56
2023-05-24T14:31:51.165Z,14.71
2023-05-24T14:34:21.420Z,14.79
2023-05-24T14:39:31.006Z,14.93
2023-05-24T14:42:05.238Z,14.94
2023-05-24T14:44:37.920Z,14.93
2023-05-24T14:47:15.297Z,14.91
2023-05-24T14:49:54.854Z,14.88
2023-05-24T14:52:39.566Z,14.78
2023-05-24T14:55:16.072Z,14.68
2023-05-24T14:57:46.591Z,14.59
2023-05-24T15:00:28.759Z,14.49
2023-05-24T15:05:52.791Z,14.49
2023-05-24T15:08:20.038Z,14.48
2023-05-24T15:10:59.196Z,14.51
2023-05-24T15:13:34.911Z,14.53
2023-05-24T15:16:04.226Z,14.56
2023-05-24T15:18:43.558Z,14.63
2023-05-24T15:23:54.051Z,14.72
2023-05-24T15:26:36.621Z,14.75
2023-05-24T15:29:16.202Z,14.77
2023-05-24T15:31:45.490Z,14.74
2023-05-24T15:37:03.941Z,14.53
2023-05-24T15:39:39.149Z,14.56
2023-05-24T15:42:08.690Z,14.54
2023-05-24T15:44:47.200Z,14.53
2023-05-24T15:47:23.834Z,14.60
2023-05-24T15:50:00.017Z,14.59
2023-05-24T15:57:49.343Z,14.60
2023-05-24T16:00:21.298Z,14.54
2023-05-24T16:03:02.526Z,14.62
2023-05-24T16:05:31.509Z,14.61
2023-05-24T16:08:01.291Z,14.67
2023-05-24T16:10:45.626Z,14.61
2023-05-24T16:13:15.026Z,14.63
2023-05-24T16:15:48.419Z,14.68
2023-05-24T16:18:23.765Z,14.65
2023-05-24T16:21:02.871Z,14.67
2023-05-24T16:23:39.183Z,14.65
2023-05-24T16:26:06.264Z,14.69
2023-05-24T16:28:36.523Z,14.69
2023-05-24T16:31:18.935Z,14.67
2023-05-24T16:33:46.807Z,14.71
2023-05-24T16:36:25.889Z,14.71
2023-05-24T16:38:52.799Z,14.74
2023-05-24T16:41:38.050Z,14.79
2023-05-24T16:44:08.133Z,14.78
2023-05-24T16:46:35.942Z,14.77
2023-05-24T16:49:29.379Z,14.76
2023-05-24T16:51:56.217Z,14.79
2023-05-24T16:54:25.801Z,14.74
2023-05-24T16:56:57.196Z,14.73
2023-05-24T16:59:34.637Z,14.75
2023-05-24T17:02:03.601Z,14.75
2023-05-24T17:09:53.161Z,14.67
2023-05-24T17:12:32.119Z,14.66
2023-05-24T17:15:04.478Z,14.60
2023-05-24T17:17:33.641Z,14.62
2023-05-24T17:20:03.589Z,14.61
2023-05-24T17:22:32.823Z,14.58
2023-05-24T17:25:09.248Z,14.57
2023-05-24T17:27:48.672Z,14.54
2023-05-24T17:30:16.377Z,14.52
2023-05-24T17:32:46.012Z,14.54
2023-05-24T17:35:14.766Z,14.54
2023-05-24T17:37:42.345Z,14.54
2023-05-24T17:42:57.826Z,14.51
2023-05-24T17:45:29.293Z,14.53
2023-05-24T17:47:56.485Z,14.52
2023-05-24T17:50:31.079Z,14.48
2023-05-24T17:53:02.376Z,14.45
2023-05-24T17:55:30.168Z,14.48
2023-05-24T18:00:49.433Z,14.45
2023-05-24T18:03:27.752Z,14.43
2023-05-24T18:05:58.678Z,14.42
2023-05-24T18:08:32.239Z,14.43
2023-05-24T18:11:04.030Z,14.39
2023-05-24T18:13:31.112Z,14.35
2023-05-24T18:15:58.851Z,14.30
2023-05-24T18:18:34.772Z,14.29
2023-05-24T18:21:01.916Z,14.28
2023-05-24T18:23:44.145Z,14.27
2023-05-24T18:26:15.587Z,14.29
2023-05-24T18:31:24.255Z,14.22
2023-05-24T18:34:01.407Z,14.20
2023-05-24T18:36:34.119Z,14.18
2023-05-24T18:39:01.338Z,14.09
2023-05-24T18:41:41.019Z,14.07
2023-05-24T18:44:08.141Z,14.05
2023-05-24T18:49:27.833Z,14.04
2023-05-24T18:54:36.226Z,14.01
2023-05-24T18:57:06.111Z,13.97
2023-05-24T18:59:46.057Z,13.98
2023-05-24T19:02:16.584Z,13.95
2023-05-24T19:04:51.100Z,13.93
2023-05-24T19:07:20.188Z,13.89
2023-05-24T19:09:59.990Z,13.84
2023-05-24T19:12:29.784Z,13.84
2023-05-24T19:17:38.668Z,13.79
2023-05-24T19:20:16.772Z,13.79
2023-05-24T19:22:52.174Z,13.77
2023-05-24T19:25:30.741Z,13.77
2023-05-24T19:28:00.891Z,13.78
2023-05-24T19:30:28.741Z,13.75
2023-05-24T19:33:02.062Z,13.68
2023-05-24T19:35:41.289Z,13.63
2023-05-24T19:38:08.482Z,13.69
2023-05-24T19:40:47.950Z,13.70
2023-05-24T19:43:17.185Z,13.67
2023-05-24T19:45:45.495Z,13.64
2023-05-24T19:56:17.987Z,13.65
2023-05-24T20:01:37.780Z,13.59
2023-05-24T20:04:05.716Z,13.62
2023-05-24T20:06:34.478Z,13.65
2023-05-24T20:09:07.671Z,13.66
2023-05-24T20:14:15.539Z,13.59
2023-05-24T20:19:31.809Z,13.55
2023-05-24T20:22:01.292Z,13.56
2023-05-24T20:24:31.148Z,13.57
2023-05-24T20:27:07.574Z,13.52
2023-05-24T20:29:48.329Z,13.47
2023-05-24T20:32:21.362Z,13.46
2023-05-24T20:34:51.626Z,13.51
2023-05-24T20:37:33.224Z,13.55
2023-05-24T20:40:02.853Z,13.55
2023-05-24T20:42:40.080Z,13.57
2023-05-24T20:45:11.909Z,13.59
2023-05-24T20:47:50.026Z,13.57
2023-05-24T20:50:19.185Z,13.59
2023-05-24T20:52:46.779Z,13.55
2023-05-24T20:58:11.275Z,13.47
2023-05-24T21:00:51.510Z,13.44
2023-05-24T21:03:26.861Z,13.44
2023-05-24T21:05:54.603Z,13.47
2023-05-24T21:11:13.800Z,13.37
2023-05-24T21:13:41.343Z,13.39
2023-05-24T21:16:08.649Z,13.43
2023-05-24T21:18:35.461Z,13.45
2023-05-24T21:21:02.337Z,13.49
2023-05-24T21:23:29.100Z,13.47
2023-05-24T21:25:55.898Z,13.47
2023-05-24T21:28:22.770Z,13.47
2023-05-24T21:30:49.804Z,13.44
2023-05-24T21:33:16.957Z,13.41
2023-05-24T21:35:44.012Z,13.40
2023-05-24T21:38:11.082Z,13.40
2023-05-24T21:40:37.955Z,13.40
2023-05-24T21:43:05.464Z,13.40
2023-05-24T21:45:32.315Z,13.41
2023-05-24T21:47:59.164Z,13.41
2023-05-24T21:50:25.998Z,13.40
2023-05-24T21:52:52.740Z,13.40
2023-05-24T21:55:19.575Z,13.39
2023-05-24T21:57:46.398Z,13.39
2023-05-24T22:00:14.173Z,13.34
2023-05-24T22:02:41.528Z,13.34
2023-05-24T22:05:08.536Z,13.30
2023-05-24T22:07:37.146Z,13.30
2023-05-24T22:10:07.523Z,13.25
2023-05-24T22:12:35.071Z,13.24
2023-05-24T22:15:02.069Z,13.23
2023-05-24T22:17:33.172Z,13.23
2023-05-24T22:20:02.733Z,13.24
2023-05-24T22:22:29.978Z,13.25
2023-05-24T22:24:56.996Z,13.25
2023-05-24T22:27:24.153Z,13.27
2023-05-24T22:29:51.195Z,13.27
2023-05-24T22:32:18.054Z,13.27
2023-05-24T22:34:45.024Z,13.27
2023-05-24T22:37:12.237Z,13.28
2023-05-24T22:39:39.906Z,13.27
2023-05-24T22:42:06.720Z,13.25
2023-05-24T22:44:33.533Z,13.22
2023-05-24T22:47:02.159Z,13.23
2023-05-24T22:49:29.612Z,13.24
2023-05-24T22:51:56.489Z,13.22
2023-05-24T22:54:23.269Z,13.25
2023-05-24T22:56:50.069Z,13.21
2023-05-24T22:59:16.862Z,13.20
2023-05-24T23:01:44.866Z,13.22
2023-05-24T23:04:21.239Z,13.21
2023-05-24T23:06:53.223Z,13.22
2023-05-24T23:09:29.264Z,13.22
2023-05-24T23:11:58.752Z,13.22
2023-05-24T23:14:25.760Z,13.18
2023-05-24T23:16:52.585Z,13.18
2023-05-24T23:19:22.248Z,13.13
2023-05-24T23:21:52.514Z,13.12
2023-05-24T23:24:19.614Z,13.13
2023-05-24T23:26:46.471Z,13.12
2023-05-24T23:29:13.409Z,13.11
2023-05-24T23:31:40.373Z,13.12
2023-05-24T23:34:07.427Z,13.11
2023-05-24T23:36:34.185Z,13.12
2023-05-24T23:39:01.058Z,13.11
2023-05-24T23:41:27.974Z,13.12
2023-05-24T23:43:54.726Z,13.10
2023-05-24T23:46:21.527Z,13.10
2023-05-24T23:48:48.402Z,13.09
2023-05-24T23:51:15.175Z,13.07
2023-05-24T23:53:41.917Z,13.09
2023-05-24T23:56:08.731Z,13.09
2023-05-24T23:58:36.156Z,13.08
